Moron de la Frontera, Spain
Current Conditions -  °F | °C
As of 5:00 AM on Thursday 27 Nov 2014 (Local Time) from LEMO Reporting Station
Light Rain Light Rain  
Wind Chill: 54°   Ceiling: 5000
Heat Index: 54°   Visibility: 4mi
Dew Point: 52°   Wind: 5mph
Humidity: 94%   Direction: 210°SSW
Pressure: 29.68"   Gusts: NA
Location:  37.12°N, 5.45°W
Report Text: LEMO 270400Z 21004KT 6000 -RA SCT015 SCT030 BKN050 12/11 Q1005 NOSIG
Loading
Personal Weather Stations






























Interactive Weather Map New forecast layout! Learn more

10-Day Weather Forecast

Advertisements
Track Severe Weather on mobile